createdAt,value
2019-03-19T00:02:40.254Z,2.10
2019-03-19T00:05:23.085Z,1.70
2019-03-19T00:08:05.552Z,1.42
2019-03-19T00:10:48.574Z,1.57
2019-03-19T00:13:31.636Z,1.15
2019-03-19T00:16:07.279Z,1.77
2019-03-19T00:18:49.385Z,1.47
2019-03-19T00:21:25.390Z,0.98
2019-03-19T00:24:07.933Z,1.40
2019-03-19T00:26:43.565Z,1.55
2019-03-19T00:29:26.897Z,1.50
2019-03-19T00:32:03.253Z,1.98
2019-03-19T00:34:46.024Z,2.25
2019-03-19T00:37:21.632Z,1.70
2019-03-19T00:40:04.110Z,2.02
2019-03-19T00:42:47.134Z,2.10
2019-03-19T00:45:29.839Z,2.12
2019-03-19T00:48:06.310Z,1.63
2019-03-19T00:50:47.974Z,2.22
2019-03-19T00:53:23.875Z,1.60
2019-03-19T00:56:06.228Z,2.67
2019-03-19T00:58:42.125Z,2.10
2019-03-19T01:01:24.149Z,1.85
2019-03-19T01:04:00.505Z,1.57
2019-03-19T01:06:42.728Z,2.15
2019-03-19T01:09:18.800Z,2.00
2019-03-19T01:12:00.882Z,2.10
2019-03-19T01:14:36.464Z,1.70
2019-03-19T01:17:19.384Z,1.40
2019-03-19T01:19:55.373Z,1.67
2019-03-19T01:22:37.917Z,2.17
2019-03-19T01:25:16.574Z,1.47
2019-03-19T01:27:59.050Z,2.05
2019-03-19T01:30:41.788Z,2.15
2019-03-19T01:33:23.487Z,1.40
2019-03-19T01:36:06.068Z,2.00
2019-03-19T01:38:42.232Z,2.45
2019-03-19T01:41:24.452Z,2.20
2019-03-19T01:44:00.180Z,2.75
2019-03-19T01:46:42.525Z,2.67
2019-03-19T01:49:25.036Z,2.95
2019-03-19T01:52:01.370Z,2.77
2019-03-19T01:54:37.082Z,2.42
2019-03-19T01:57:20.050Z,3.00
2019-03-19T01:59:55.623Z,2.50
2019-03-19T02:02:37.959Z,2.70
2019-03-19T02:05:27.078Z,2.87
2019-03-19T02:08:09.099Z,3.17
2019-03-19T02:10:44.965Z,3.15
2019-03-19T02:13:26.614Z,3.00
2019-03-19T02:16:02.919Z,2.42
2019-03-19T02:18:45.021Z,3.17
2019-03-19T02:21:20.865Z,3.50
2019-03-19T02:24:03.476Z,3.77
2019-03-19T02:26:45.885Z,2.22
2019-03-19T02:29:22.428Z,3.37
2019-03-19T02:32:11.348Z,4.17
2019-03-19T02:34:53.518Z,1.87
2019-03-19T02:37:35.638Z,2.92
2019-03-19T02:40:23.985Z,2.62
2019-03-19T02:43:00.352Z,2.22
2019-03-19T02:45:42.190Z,2.58
2019-03-19T02:48:18.447Z,3.10
2019-03-19T02:51:00.760Z,2.20
2019-03-19T02:53:43.892Z,3.75
2019-03-19T02:56:33.723Z,3.40
2019-03-19T02:59:10.032Z,3.92
2019-03-19T03:01:52.682Z,4.10
2019-03-19T03:04:41.517Z,4.40
2019-03-19T03:07:23.675Z,4.92
2019-03-19T03:10:05.884Z,4.67
2019-03-19T03:12:55.696Z,5.30
2019-03-19T03:15:38.684Z,4.70
2019-03-19T03:18:15.206Z,5.10
2019-03-19T03:20:58.165Z,5.78
2019-03-19T03:23:41.273Z,4.58
2019-03-19T03:26:24.040Z,5.05
2019-03-19T03:28:59.515Z,4.67
2019-03-19T03:31:42.303Z,5.28
2019-03-19T03:34:24.568Z,5.30
2019-03-19T03:37:07.351Z,4.00
2019-03-19T03:39:43.169Z,4.90
2019-03-19T03:42:24.920Z,5.55
2019-03-19T03:45:00.516Z,3.72
2019-03-19T03:47:43.238Z,3.02
2019-03-19T03:50:31.281Z,1.67
2019-03-19T03:53:07.318Z,4.25
2019-03-19T03:55:50.269Z,4.10
2019-03-19T03:58:25.788Z,3.47
2019-03-19T04:01:08.720Z,3.80
2019-03-19T04:03:44.521Z,3.80
2019-03-19T04:06:33.344Z,4.20
2019-03-19T04:09:15.417Z,3.37
2019-03-19T04:11:58.370Z,3.47
2019-03-19T04:14:33.748Z,2.62
2019-03-19T04:17:16.261Z,3.30
2019-03-19T04:19:51.791Z,3.40
2019-03-19T04:22:34.796Z,3.37
2019-03-19T04:25:27.175Z,2.72
2019-03-19T04:28:10.018Z,2.90
2019-03-19T04:30:46.517Z,2.95
2019-03-19T04:33:29.167Z,4.45
2019-03-19T04:36:05.286Z,5.20
2019-03-19T04:38:48.076Z,4.20
2019-03-19T04:41:31.206Z,4.63
2019-03-19T04:44:06.704Z,4.33
2019-03-19T04:46:48.788Z,3.60
2019-03-19T04:49:24.420Z,4.47
2019-03-19T04:52:07.473Z,3.65
2019-03-19T04:54:56.844Z,3.00
2019-03-19T04:57:39.554Z,3.55
2019-03-19T05:00:21.395Z,3.70
2019-03-19T05:03:03.980Z,3.55
2019-03-19T05:05:40.008Z,3.05
2019-03-19T05:08:23.052Z,3.60
2019-03-19T05:11:05.528Z,3.47
2019-03-19T05:13:47.994Z,3.58
2019-03-19T05:16:24.422Z,3.85
2019-03-19T05:19:07.310Z,3.40
2019-03-19T05:21:49.320Z,3.85
2019-03-19T05:24:31.164Z,3.10
2019-03-19T05:27:07.600Z,4.30
2019-03-19T05:29:50.201Z,3.90
2019-03-19T05:32:26.270Z,3.42
2019-03-19T05:35:08.973Z,3.33
2019-03-19T05:37:50.923Z,3.90
2019-03-19T05:40:33.551Z,3.80
2019-03-19T05:43:09.400Z,2.80
2019-03-19T05:45:52.385Z,4.85
2019-03-19T05:48:27.990Z,4.12
2019-03-19T05:51:10.532Z,3.60
2019-03-19T05:53:52.859Z,4.40
2019-03-19T05:56:35.215Z,4.20
2019-03-19T05:59:11.244Z,4.87
2019-03-19T06:01:53.970Z,4.37
2019-03-19T06:04:30.446Z,3.83
2019-03-19T06:07:13.242Z,4.10
2019-03-19T06:09:49.715Z,3.80
2019-03-19T06:12:32.446Z,3.90
2019-03-19T06:15:08.815Z,3.70
2019-03-19T06:17:51.083Z,3.42
2019-03-19T06:20:27.745Z,3.70
2019-03-19T06:23:10.182Z,3.33
2019-03-19T06:25:46.190Z,3.25
2019-03-19T06:28:28.679Z,4.40
2019-03-19T06:31:04.343Z,3.80
2019-03-19T06:33:48.239Z,3.92
2019-03-19T06:36:24.619Z,3.10
2019-03-19T06:39:07.255Z,4.10
2019-03-19T06:41:43.595Z,2.85
2019-03-19T06:44:26.515Z,3.40
2019-03-19T06:47:02.733Z,3.42
2019-03-19T06:49:44.967Z,3.30
2019-03-19T06:52:27.962Z,3.10
2019-03-19T06:55:03.975Z,2.87
2019-03-19T06:57:46.396Z,3.83
2019-03-19T07:00:24.174Z,3.00
2019-03-19T07:03:06.476Z,2.85
2019-03-19T07:05:49.358Z,3.30
2019-03-19T07:08:25.658Z,2.93
2019-03-19T07:11:08.640Z,2.92
2019-03-19T07:13:50.924Z,2.40
2019-03-19T07:16:39.781Z,2.55
2019-03-19T07:19:15.603Z,2.83
2019-03-19T07:21:58.344Z,2.90
2019-03-19T07:24:40.923Z,3.60
2019-03-19T07:27:24.017Z,2.75
2019-03-19T07:30:06.106Z,2.37
2019-03-19T07:32:42.598Z,2.00
2019-03-19T07:35:25.091Z,2.95
2019-03-19T07:38:01.586Z,3.58
2019-03-19T07:40:45.036Z,3.70
2019-03-19T07:43:28.155Z,3.77
2019-03-19T07:49:03.709Z,2.47
2019-03-19T07:51:46.536Z,2.87
2019-03-19T07:54:23.013Z,2.77
2019-03-19T07:57:05.008Z,2.60
2019-03-19T07:59:40.496Z,2.87
2019-03-19T08:02:23.311Z,3.17
2019-03-19T08:04:59.629Z,2.77
2019-03-19T08:07:41.676Z,2.83
2019-03-19T08:10:23.064Z,2.75
2019-03-19T08:13:05.531Z,3.00
2019-03-19T08:15:41.695Z,2.22
2019-03-19T08:18:24.714Z,1.55
2019-03-19T08:21:01.141Z,2.87
2019-03-19T08:23:43.614Z,2.00
2019-03-19T08:26:19.163Z,2.58
2019-03-19T08:29:02.035Z,2.37
2019-03-19T08:31:37.934Z,2.70
2019-03-19T08:34:20.766Z,2.15
2019-03-19T08:36:56.624Z,2.20
2019-03-19T08:39:38.434Z,2.35
2019-03-19T08:42:14.218Z,2.40
2019-03-19T08:44:55.826Z,1.67
2019-03-19T08:47:45.365Z,2.20
2019-03-19T08:50:31.336Z,2.35
2019-03-19T08:53:07.493Z,2.42
2019-03-19T08:55:50.394Z,1.67
2019-03-19T08:58:26.692Z,2.17
2019-03-19T09:01:10.105Z,1.52
2019-03-19T09:03:46.249Z,2.08
2019-03-19T09:06:29.002Z,1.02
2019-03-19T09:09:05.301Z,0.95
2019-03-19T09:11:47.207Z,1.82
2019-03-19T09:14:23.240Z,1.30
2019-03-19T09:17:05.884Z,1.47
2019-03-19T09:19:48.743Z,1.12
2019-03-19T09:22:30.709Z,0.93
2019-03-19T09:25:06.415Z,1.62
2019-03-19T09:27:48.641Z,1.60
2019-03-19T09:30:45.135Z,1.62
2019-03-19T09:33:27.736Z,0.90
2019-03-19T09:36:10.227Z,1.92
2019-03-19T09:38:59.094Z,1.52
2019-03-19T09:41:40.739Z,0.93
2019-03-19T09:44:17.334Z,1.32
2019-03-19T09:46:59.694Z,1.17
2019-03-19T09:49:42.820Z,1.50
2019-03-19T09:52:35.028Z,1.15
2019-03-19T09:55:19.909Z,1.12
2019-03-19T09:57:56.363Z,1.15
2019-03-19T10:00:39.065Z,1.55
2019-03-19T10:03:14.664Z,1.55
2019-03-19T10:05:57.655Z,1.22
2019-03-19T10:08:40.224Z,1.60
2019-03-19T10:11:16.060Z,1.65
2019-03-19T10:13:58.475Z,1.65
2019-03-19T10:16:41.509Z,1.70
2019-03-19T10:19:17.157Z,1.22
2019-03-19T10:21:59.994Z,1.12
2019-03-19T10:24:36.414Z,2.37
2019-03-19T10:27:19.750Z,1.75
2019-03-19T10:30:02.423Z,2.87
2019-03-19T10:32:44.533Z,3.80
2019-03-19T10:35:21.400Z,4.00
2019-03-19T10:37:57.122Z,3.20
2019-03-19T10:40:39.852Z,3.27
2019-03-19T10:43:15.646Z,2.37
2019-03-19T10:45:57.809Z,1.80
2019-03-19T10:48:40.320Z,2.40
2019-03-19T10:51:16.403Z,1.62
2019-03-19T10:53:58.631Z,2.30
2019-03-19T10:56:34.500Z,1.45
2019-03-19T10:59:17.284Z,1.75
2019-03-19T11:01:53.671Z,1.73
2019-03-19T11:04:36.648Z,1.55
2019-03-19T11:07:19.062Z,1.52
2019-03-19T11:10:01.815Z,1.98
2019-03-19T11:12:37.979Z,2.27
2019-03-19T11:15:23.653Z,1.25
2019-03-19T11:18:00.299Z,1.50
2019-03-19T11:20:45.387Z,1.27
2019-03-19T11:23:20.456Z,1.30
2019-03-19T11:26:03.313Z,1.77
2019-03-19T11:28:39.795Z,1.90
2019-03-19T11:31:22.941Z,1.77
2019-03-19T11:33:58.832Z,1.32
2019-03-19T11:36:41.806Z,1.20
2019-03-19T11:39:17.416Z,1.00
2019-03-19T11:42:00.076Z,1.62
2019-03-19T11:44:35.970Z,1.25
2019-03-19T11:47:18.512Z,2.10
2019-03-19T11:49:54.892Z,1.20
2019-03-19T11:52:36.535Z,1.87
2019-03-19T11:55:22.882Z,1.87
2019-03-19T11:58:05.545Z,1.65
2019-03-19T12:00:42.892Z,1.80
2019-03-19T12:03:25.039Z,1.50
2019-03-19T12:06:07.344Z,1.98
2019-03-19T12:08:43.273Z,2.02
2019-03-19T12:11:25.506Z,2.45
2019-03-19T12:14:14.492Z,2.40
2019-03-19T12:16:56.715Z,2.00
2019-03-19T12:19:39.283Z,1.67
2019-03-19T12:22:27.972Z,1.25
2019-03-19T12:25:11.853Z,1.30
2019-03-19T12:27:55.287Z,1.45
2019-03-19T12:30:38.246Z,0.75
2019-03-19T12:33:14.675Z,1.00
2019-03-19T12:35:57.853Z,0.90
2019-03-19T12:38:34.241Z,1.02
2019-03-19T12:41:16.853Z,1.00
2019-03-19T12:43:52.823Z,1.00
2019-03-19T12:46:36.296Z,1.05
2019-03-19T12:49:18.337Z,1.37
2019-03-19T12:52:00.355Z,1.32
2019-03-19T12:54:37.795Z,1.12
2019-03-19T12:57:20.496Z,0.80
2019-03-19T12:59:57.163Z,0.77
2019-03-19T13:02:39.533Z,1.00
2019-03-19T13:05:16.837Z,1.20
2019-03-19T13:07:59.462Z,1.20
2019-03-19T13:10:35.817Z,1.22
2019-03-19T13:13:18.749Z,1.52
2019-03-19T13:15:55.081Z,2.00
2019-03-19T13:18:37.834Z,1.47
2019-03-19T13:21:20.377Z,1.82
2019-03-19T13:24:02.910Z,1.37
2019-03-19T13:26:39.408Z,1.52
2019-03-19T13:29:20.993Z,0.95
2019-03-19T13:32:04.259Z,1.17
2019-03-19T13:34:53.042Z,1.32
2019-03-19T13:37:29.268Z,0.90
2019-03-19T13:40:11.632Z,1.15
2019-03-19T13:42:54.114Z,0.80
2019-03-19T13:45:30.959Z,1.25
2019-03-19T13:48:13.777Z,0.93
2019-03-19T13:50:50.321Z,1.10
2019-03-19T13:53:32.962Z,1.22
2019-03-19T13:56:09.059Z,1.98
2019-03-19T13:58:51.699Z,0.68
2019-03-19T14:01:27.284Z,1.70
2019-03-19T14:04:09.934Z,1.32
2019-03-19T14:06:46.358Z,0.90
2019-03-19T14:09:28.357Z,1.32
2019-03-19T14:12:10.587Z,1.67
2019-03-19T14:14:53.334Z,1.32
2019-03-19T14:17:29.795Z,1.67
2019-03-19T14:20:20.635Z,1.87
2019-03-19T14:23:04.100Z,1.55
2019-03-19T14:25:39.850Z,1.22
2019-03-19T14:28:22.290Z,2.12
2019-03-19T14:31:08.443Z,1.85
2019-03-19T14:33:42.160Z,1.22
2019-03-19T14:36:24.985Z,1.67
2019-03-19T14:39:07.286Z,1.20
2019-03-19T14:41:42.807Z,1.00
2019-03-19T14:44:25.272Z,1.42
2019-03-19T14:47:14.621Z,1.60
2019-03-19T14:49:56.715Z,1.67
2019-03-19T14:52:39.571Z,1.32
2019-03-19T14:55:22.934Z,1.93
2019-03-19T14:57:58.600Z,1.98
2019-03-19T15:00:41.903Z,1.30
2019-03-19T15:03:18.391Z,0.60
2019-03-19T15:06:00.950Z,1.02
2019-03-19T15:08:37.333Z,1.35
2019-03-19T15:11:20.315Z,1.50
2019-03-19T15:13:56.863Z,1.62
2019-03-19T15:16:39.197Z,1.80
2019-03-19T15:19:21.795Z,1.90
2019-03-19T15:21:58.145Z,2.10
2019-03-19T15:24:40.964Z,2.20
2019-03-19T15:27:23.085Z,1.73
2019-03-19T15:29:59.545Z,2.27
2019-03-19T15:32:41.761Z,2.00
2019-03-19T15:35:24.940Z,1.70
2019-03-19T15:38:07.225Z,2.10
2019-03-19T15:40:43.209Z,3.00
2019-03-19T15:43:25.638Z,2.58
2019-03-19T15:46:01.808Z,2.33
2019-03-19T15:48:44.700Z,2.52
2019-03-19T15:51:28.030Z,2.60
2019-03-19T15:54:10.148Z,2.12
2019-03-19T15:56:52.983Z,2.95
2019-03-19T15:59:28.397Z,2.17
2019-03-19T16:02:11.550Z,2.20
2019-03-19T16:05:00.773Z,2.12
2019-03-19T16:07:36.336Z,2.20
2019-03-19T16:10:22.203Z,2.10
2019-03-19T16:13:04.473Z,2.37
2019-03-19T16:15:41.060Z,1.67
2019-03-19T16:18:23.650Z,2.98
2019-03-19T16:21:00.446Z,4.22
2019-03-19T16:23:42.579Z,2.95
2019-03-19T16:26:18.508Z,2.30
2019-03-19T16:29:02.108Z,4.55
2019-03-19T16:31:37.840Z,3.92
2019-03-19T16:34:21.480Z,3.15
2019-03-19T16:39:39.216Z,5.17
2019-03-19T16:42:15.796Z,7.65
2019-03-19T16:44:58.100Z,25.80
2019-03-19T16:47:34.266Z,5.58
2019-03-19T16:50:20.930Z,6.50
2019-03-19T16:52:57.153Z,31.35
2019-03-19T16:55:39.132Z,38.02
2019-03-19T16:58:14.985Z,23.35
2019-03-19T17:00:57.366Z,37.33
2019-03-19T17:03:40.414Z,50.98
2019-03-19T17:06:23.685Z,47.53
2019-03-19T17:09:13.646Z,40.12
2019-03-19T17:11:56.354Z,57.43
2019-03-19T17:14:39.265Z,30.00
2019-03-19T17:17:28.703Z,48.30
2019-03-19T17:20:04.556Z,41.30
2019-03-19T17:22:47.515Z,21.50
2019-03-19T17:25:37.806Z,41.02
2019-03-19T17:28:27.244Z,47.90
2019-03-19T17:31:10.162Z,37.60
2019-03-19T17:33:52.725Z,62.77
2019-03-19T17:36:28.483Z,66.17
2019-03-19T17:39:11.411Z,33.90
2019-03-19T17:41:47.005Z,20.23
2019-03-19T17:44:30.175Z,29.05
2019-03-19T17:47:19.385Z,63.05
2019-03-19T17:49:55.714Z,40.60
2019-03-19T17:52:38.166Z,41.68
2019-03-19T17:55:14.283Z,27.77
2019-03-19T17:57:57.482Z,34.60
2019-03-19T18:00:54.319Z,30.57
2019-03-19T18:03:36.621Z,20.32
2019-03-19T18:06:19.141Z,20.40
2019-03-19T18:09:01.799Z,57.15
2019-03-19T18:11:38.275Z,113.42
2019-03-19T18:14:16.154Z,54.88
2019-03-19T18:16:58.673Z,29.65
2019-03-19T18:19:41.208Z,29.72
2019-03-19T18:22:23.538Z,72.10
2019-03-19T18:25:05.453Z,71.10
2019-03-19T18:27:41.913Z,55.23
2019-03-19T18:30:34.450Z,25.10
2019-03-19T18:33:17.099Z,22.95
2019-03-19T18:35:56.297Z,29.10
2019-03-19T18:38:38.077Z,26.02
2019-03-19T18:41:27.322Z,23.65
2019-03-19T18:44:10.222Z,17.05
2019-03-19T18:46:45.802Z,17.40
2019-03-19T18:49:28.364Z,18.42
2019-03-19T18:52:04.699Z,19.37
2019-03-19T18:54:48.131Z,17.67
2019-03-19T18:57:31.201Z,24.95
2019-03-19T19:00:23.939Z,17.02
2019-03-19T19:02:59.676Z,19.70
2019-03-19T19:05:49.340Z,21.17
2019-03-19T19:08:25.316Z,15.63
2019-03-19T19:11:07.998Z,11.08
2019-03-19T19:13:44.350Z,7.58
2019-03-19T19:16:27.122Z,8.28
2019-03-19T19:19:09.764Z,7.83
2019-03-19T19:21:46.282Z,7.47
2019-03-19T19:24:29.244Z,7.58
2019-03-19T19:27:04.986Z,8.13
2019-03-19T19:29:47.258Z,8.95
2019-03-19T19:32:30.001Z,7.95
2019-03-19T19:35:13.797Z,7.60
2019-03-19T19:37:50.172Z,7.75
2019-03-19T19:40:32.627Z,7.22
2019-03-19T19:43:08.747Z,7.25
2019-03-19T19:45:51.799Z,8.83
2019-03-19T19:48:27.787Z,15.35
2019-03-19T19:51:10.373Z,16.52
2019-03-19T19:53:52.539Z,17.85
2019-03-19T19:56:28.404Z,18.70
2019-03-19T19:59:10.854Z,18.82
2019-03-19T20:02:00.568Z,18.67
2019-03-19T20:04:36.285Z,19.00
2019-03-19T20:07:19.034Z,18.23
2019-03-19T20:09:54.547Z,16.17
2019-03-19T20:12:37.124Z,15.58
2019-03-19T20:15:14.456Z,16.97
2019-03-19T20:17:59.092Z,19.65
2019-03-19T20:20:42.752Z,16.60
2019-03-19T20:26:00.938Z,14.80
2019-03-19T20:28:43.631Z,15.10
2019-03-19T20:31:25.922Z,15.37
2019-03-19T20:34:01.804Z,18.37
2019-03-19T20:36:44.257Z,22.55
2019-03-19T20:39:27.107Z,16.55
2019-03-19T20:42:16.166Z,16.95
2019-03-19T20:44:52.142Z,24.63
2019-03-19T20:47:35.014Z,32.00
2019-03-19T20:50:21.597Z,29.55
2019-03-19T20:52:57.660Z,25.52
2019-03-19T20:55:40.625Z,26.20
2019-03-19T20:58:23.750Z,27.65
2019-03-19T21:01:00.252Z,24.30
2019-03-19T21:03:42.606Z,25.45
2019-03-19T21:06:25.322Z,21.17
2019-03-19T21:09:07.869Z,15.77
2019-03-19T21:11:43.588Z,16.45
2019-03-19T21:14:25.820Z,16.40
2019-03-19T21:17:07.795Z,15.10
2019-03-19T21:19:56.606Z,15.63
2019-03-19T21:22:39.387Z,16.30
2019-03-19T21:25:15.484Z,12.70
2019-03-19T21:27:57.918Z,15.25
2019-03-19T21:30:34.033Z,16.20
2019-03-19T21:33:16.471Z,15.38
2019-03-19T21:35:52.467Z,14.85
2019-03-19T21:38:35.220Z,14.80
2019-03-19T21:41:17.537Z,14.17
2019-03-19T21:44:00.331Z,16.02
2019-03-19T21:46:43.247Z,16.27
2019-03-19T21:49:25.968Z,14.50
2019-03-19T21:52:02.415Z,13.20
2019-03-19T21:54:45.080Z,12.20
2019-03-19T21:57:28.093Z,12.03
2019-03-19T22:00:11.846Z,11.48
2019-03-19T22:02:54.883Z,11.33
2019-03-19T22:05:30.619Z,8.58
2019-03-19T22:08:13.525Z,11.78
2019-03-19T22:10:49.175Z,10.78
2019-03-19T22:13:31.368Z,10.48
2019-03-19T22:16:13.988Z,10.58
2019-03-19T22:18:56.995Z,10.28
2019-03-19T22:21:39.736Z,8.28
2019-03-19T22:24:16.255Z,9.77
2019-03-19T22:26:58.427Z,10.50
2019-03-19T22:29:34.641Z,9.33
2019-03-19T22:32:16.532Z,8.45
2019-03-19T22:34:52.948Z,8.70
2019-03-19T22:37:34.811Z,7.45
2019-03-19T22:40:25.600Z,7.60
2019-03-19T22:43:08.199Z,7.58
2019-03-19T22:45:44.553Z,7.20
2019-03-19T22:48:27.950Z,6.65
2019-03-19T22:51:04.517Z,6.70
2019-03-19T22:53:46.551Z,7.80
2019-03-19T22:56:23.122Z,8.43
2019-03-19T22:59:05.731Z,7.92
2019-03-19T23:01:47.867Z,8.88
2019-03-19T23:04:30.710Z,9.30
2019-03-19T23:07:13.216Z,7.60
2019-03-19T23:10:02.813Z,8.63
2019-03-19T23:12:47.001Z,7.55
2019-03-19T23:15:30.216Z,7.45
2019-03-19T23:18:14.076Z,8.55
2019-03-19T23:20:56.155Z,5.92
2019-03-19T23:23:32.566Z,5.87
2019-03-19T23:26:08.480Z,5.40
2019-03-19T23:28:50.824Z,5.30
2019-03-19T23:31:32.604Z,4.90
2019-03-19T23:34:15.814Z,5.30
2019-03-19T23:36:51.302Z,5.60
2019-03-19T23:39:34.266Z,5.08
2019-03-19T23:42:10.247Z,5.50
2019-03-19T23:44:52.900Z,5.40
2019-03-19T23:47:35.404Z,4.97
2019-03-19T23:50:15.815Z,5.92
2019-03-19T23:52:58.573Z,5.20
2019-03-19T23:55:47.434Z,4.47
2019-03-19T23:58:23.009Z,4.97
